Terminal Aerodrome Forecast
Issued by NWS

Home | Current Version | Previous Version | Text Only | Print | Product List | Glossary On
Versions: 1 2 3 4 5 6 7 8 9 10 11 12 13 14 15 16
000
FTUS43 KMQT 061138
TAFCMX
TAF
KCMX 061138Z 0612/0712 22005KT P6SM FEW150
     FM061600 25012G19KT P6SM FEW150
     FM062300 25012KT P6SM -SHRA BKN070
     FM070200 30013KT P6SM -SHRA BKN040 WS015/35040KT
     FM070500 35013G18KT P6SM VCSH OVC060
     FM070800 36009KT P6SM SCT100=

USA.gov is the U.S. government's official web portal to all federal, state and local government web resources and services.